Time;durP1;ratioP1;P1;durP2;ratioP2;P2;SDS_P1;SDS_P2;PMS_P1;PMS_P2;Temp;Humidity;BMP_temperature;BMP_pressure;BME280_temperature;BME280_humidity;BME280_pressure;Samples;Min_cycle;Max_cycle;Signal;HPM_P1;HPM_P2
2023/05/11 00:02:04;;;;;;;0.20;0.20;;;;;;;;;;5059904;28;20043;-72
2023/05/11 00:04:33;;;;;;;0.68;0.50;;;;;;;;;;5059323;28;20115;-72
2023/05/11 00:07:01;;;;;;;1.38;0.57;;;;;;;;;;5059778;28;20326;-73
2023/05/11 00:09:30;;;;;;;0.13;0.13;;;;;;;;;;5058635;28;20040;-73
2023/05/11 00:12:00;;;;;;;0.40;0.40;;;;;;;;;;5058548;28;20083;-74
2023/05/11 00:14:28;;;;;;;0.45;0.43;;;;;;;;;;5057932;28;20041;-73
2023/05/11 00:16:57;;;;;;;0.00;0.00;;;;;;;;;;5059219;28;20607;-72
2023/05/11 00:19:25;;;;;;;0.65;0.40;;;;;;;;;;5065493;28;20055;-72
2023/05/11 00:21:53;;;;;;;0.10;0.10;;;;;;;;;;5060444;28;20053;-71
2023/05/11 00:24:22;;;;;;;0.25;0.22;;;;;;;;;;5061428;28;20080;-73
2023/05/11 00:26:50;;;;;;;0.38;0.28;;;;;;;;;;5062644;28;20055;-73
2023/05/11 00:29:20;;;;;;;0.10;0.10;;;;;;;;;;5065698;28;20392;-72
2023/05/11 00:31:48;;;;;;;0.32;0.32;;;;;;;;;;5060959;28;20515;-72
2023/05/11 00:34:18;;;;;;;0.17;0.17;;;;;;;;;;5065318;28;20036;-73
2023/05/11 00:36:46;;;;;;;0.10;0.10;;;;;;;;;;5063323;28;20766;-72
2023/05/11 00:39:16;;;;;;;0.70;0.28;;;;;;;;;;5062857;28;20062;-72
2023/05/11 00:41:44;;;;;;;0.20;0.20;;;;;;;;;;5062989;28;20453;-70
2023/05/11 00:44:13;;;;;;;1.45;0.25;;;;;;;;;;5062090;28;20075;-71
2023/05/11 00:46:42;;;;;;;0.10;0.10;;;;;;;;;;5058793;28;20053;-71
2023/05/11 00:49:11;;;;;;;0.20;0.20;;;;;;;;;;5062476;28;20080;-72
2023/05/11 00:51:40;;;;;;;0.22;0.22;;;;;;;;;;5058782;28;20963;-73
2023/05/11 00:54:13;;;;;;;0.68;0.10;;;;;;;;;;5060285;28;20045;-72
2023/05/11 00:56:42;;;;;;;0.17;0.17;;;;;;;;;;5063322;28;20133;-72
2023/05/11 00:59:12;;;;;;;0.10;0.10;;;;;;;;;;5062273;28;20052;-72
2023/05/11 01:01:40;;;;;;;0.10;0.10;;;;;;;;;;5065022;28;20048;-71
2023/05/11 01:04:21;;;;;;;0.30;0.20;;;;;;;;;;5049673;28;20056;-76
2023/05/11 01:06:52;;;;;;;0.20;0.10;;;;;;;;;;5052787;28;20051;-76
2023/05/11 01:09:28;;;;;;;0.20;0.20;;;;;;;;;;5052256;28;20076;-75
2023/05/11 01:12:01;;;;;;;0.20;0.20;;;;;;;;;;5052857;28;20041;-77
2023/05/11 01:14:35;;;;;;;0.10;0.10;;;;;;;;;;5052865;28;20455;-73
2023/05/11 01:17:06;;;;;;;1.08;0.52;;;;;;;;;;5051968;28;20475;-78
2023/05/11 01:19:40;;;;;;;0.63;0.20;;;;;;;;;;5052342;28;20091;-76
2023/05/11 01:22:10;;;;;;;0.17;0.17;;;;;;;;;;5051839;28;20051;-71
2023/05/11 01:24:45;;;;;;;0.60;0.60;;;;;;;;;;5052939;28;20045;-77
2023/05/11 01:27:13;;;;;;;;;;;;;;;;;;5052376;28;20045;-76
2023/05/11 01:29:51;;;;;;;0.10;0.10;;;;;;;;;;5052718;28;19947;-73
2023/05/11 01:32:21;;;;;;;0.30;0.30;;;;;;;;;;5048815;28;20405;-77
2023/05/11 01:34:53;;;;;;;0.30;0.30;;;;;;;;;;5041441;28;20064;-76
2023/05/11 01:37:23;;;;;;;0.40;0.40;;;;;;;;;;5036496;28;20045;-75
2023/05/11 01:39:52;;;;;;;0.38;0.38;;;;;;;;;;5042704;28;20056;-76
2023/05/11 01:42:22;;;;;;;0.40;0.30;;;;;;;;;;5036648;28;20540;-74
2023/05/11 01:44:52;;;;;;;0.60;0.40;;;;;;;;;;5038217;28;20038;-76
2023/05/11 01:47:23;;;;;;;0.10;0.10;;;;;;;;;;5040036;28;20049;-76
2023/05/11 01:49:52;;;;;;;0.52;0.20;;;;;;;;;;5043625;28;20132;-76
2023/05/11 01:52:21;;;;;;;0.20;0.15;;;;;;;;;;5042669;28;20051;-73
2023/05/11 01:54:51;;;;;;;0.10;0.10;;;;;;;;;;5045081;28;20061;-74
2023/05/11 01:57:20;;;;;;;0.57;0.20;;;;;;;;;;5043080;28;20059;-74
2023/05/11 01:59:49;;;;;;;0.22;0.20;;;;;;;;;;5042908;28;20073;-77
2023/05/11 02:02:18;;;;;;;0.75;0.40;;;;;;;;;;5043152;28;20501;-72
2023/05/11 02:04:49;;;;;;;0.98;0.40;;;;;;;;;;5044130;28;20049;-76
2023/05/11 02:07:18;;;;;;;0.63;0.10;;;;;;;;;;5042517;28;20049;-76
2023/05/11 02:09:47;;;;;;;0.10;0.10;;;;;;;;;;5044900;28;20420;-78
2023/05/11 02:12:18;;;;;;;1.25;0.35;;;;;;;;;;5044752;28;20045;-78
2023/05/11 02:14:48;;;;;;;0.20;0.17;;;;;;;;;;5043498;28;20394;-68
2023/05/11 02:17:19;;;;;;;0.20;0.20;;;;;;;;;;5041031;28;20561;-73
2023/05/11 02:19:49;;;;;;;0.20;0.20;;;;;;;;;;5045291;28;20053;-74
2023/05/11 02:22:19;;;;;;;0.70;0.10;;;;;;;;;;5042702;28;20136;-77
2023/05/11 02:24:47;;;;;;;0.20;0.20;;;;;;;;;;5044985;28;20048;-76
2023/05/11 02:27:16;;;;;;;0.10;0.10;;;;;;;;;;5044198;28;20037;-76
2023/05/11 02:29:45;;;;;;;0.20;0.20;;;;;;;;;;5042668;28;21086;-75
2023/05/11 02:32:18;;;;;;;0.20;0.20;;;;;;;;;;5042971;28;20055;-79
2023/05/11 02:34:50;;;;;;;1.17;0.50;;;;;;;;;;5045152;28;20147;-77
2023/05/11 02:37:24;;;;;;;0.03;0.03;;;;;;;;;;5047255;28;20060;-77
2023/05/11 02:39:56;;;;;;;0.10;0.10;;;;;;;;;;5039626;28;20409;-77
2023/05/11 02:42:27;;;;;;;0.00;0.00;;;;;;;;;;5046588;28;20075;-74
2023/05/11 02:44:56;;;;;;;0.13;0.13;;;;;;;;;;5042254;28;20040;-78
2023/05/11 02:47:27;;;;;;;0.10;0.10;;;;;;;;;;5041955;28;20127;-73
2023/05/11 02:49:58;;;;;;;0.25;0.10;;;;;;;;;;5040853;28;20104;-72
2023/05/11 02:52:28;;;;;;;0.10;0.10;;;;;;;;;;5044357;28;20055;-76
2023/05/11 02:54:57;;;;;;;0.40;0.20;;;;;;;;;;5045244;28;20449;-77
2023/05/11 02:57:26;;;;;;;0.60;0.20;;;;;;;;;;5043281;28;20044;-78
2023/05/11 02:59:55;;;;;;;0.20;0.20;;;;;;;;;;5044855;28;20045;-78
2023/05/11 03:02:23;;;;;;;0.10;0.10;;;;;;;;;;5044200;28;20077;-73
2023/05/11 03:04:52;;;;;;;0.20;0.20;;;;;;;;;;5044138;28;20049;-75
2023/05/11 03:07:20;;;;;;;0.10;0.10;;;;;;;;;;5042077;28;20063;-76
2023/05/11 03:09:50;;;;;;;0.22;0.22;;;;;;;;;;5043059;28;20410;-72
2023/05/11 03:12:18;;;;;;;0.25;0.20;;;;;;;;;;5047237;28;20405;-76
2023/05/11 03:14:47;;;;;;;0.15;0.15;;;;;;;;;;5044365;28;20530;-74
2023/05/11 03:17:17;;;;;;;0.10;0.10;;;;;;;;;;5042170;28;20068;-72
2023/05/11 03:19:46;;;;;;;0.73;0.22;;;;;;;;;;5041301;28;20063;-77
2023/05/11 03:22:14;;;;;;;0.13;0.13;;;;;;;;;;5044025;28;20045;-75
2023/05/11 03:24:43;;;;;;;0.93;0.30;;;;;;;;;;5040911;28;20139;-70
2023/05/11 03:27:13;;;;;;;0.63;0.10;;;;;;;;;;5043396;28;20378;-76
2023/05/11 03:29:43;;;;;;;0.20;0.20;;;;;;;;;;5036496;28;20068;-76
2023/05/11 03:32:11;;;;;;;0.13;0.13;;;;;;;;;;5041698;28;20600;-78
2023/05/11 03:34:40;;;;;;;0.20;0.20;;;;;;;;;;5039858;28;20052;-78
2023/05/11 03:37:11;;;;;;;0.20;0.20;;;;;;;;;;5041722;28;20052;-74
2023/05/11 03:39:40;;;;;;;0.15;0.15;;;;;;;;;;5046456;28;20052;-71
2023/05/11 03:42:09;;;;;;;0.20;0.20;;;;;;;;;;5042168;28;20064;-77
2023/05/11 03:44:39;;;;;;;0.08;0.08;;;;;;;;;;5045733;28;20055;-75
2023/05/11 03:47:08;;;;;;;0.40;0.25;;;;;;;;;;5037615;28;20401;-77
2023/05/11 03:49:37;;;;;;;0.57;0.28;;;;;;;;;;5044128;28;20469;-76
2023/05/11 03:52:06;;;;;;;0.30;0.13;;;;;;;;;;5041675;28;20379;-75
2023/05/11 03:54:34;;;;;;;0.10;0.10;;;;;;;;;;5033363;28;20044;-70
2023/05/11 03:57:02;;;;;;;0.10;0.10;;;;;;;;;;5040416;28;20048;-72
2023/05/11 03:59:31;;;;;;;0.10;0.10;;;;;;;;;;5039344;28;20041;-75
2023/05/11 04:02:00;;;;;;;0.10;0.10;;;;;;;;;;5042274;28;20494;-70
2023/05/11 04:04:29;;;;;;;0.00;0.00;;;;;;;;;;5040540;28;20617;-75
2023/05/11 04:06:58;;;;;;;0.20;0.20;;;;;;;;;;5038769;28;20053;-75
2023/05/11 04:09:26;;;;;;;0.10;0.10;;;;;;;;;;5039553;28;20850;-68
2023/05/11 04:11:54;;;;;;;0.20;0.20;;;;;;;;;;5037502;28;20068;-74
2023/05/11 04:14:23;;;;;;;0.08;0.08;;;;;;;;;;5037624;28;20528;-76
2023/05/11 04:16:51;;;;;;;0.20;0.20;;;;;;;;;;5033295;28;20051;-76
2023/05/11 04:19:21;;;;;;;0.35;0.20;;;;;;;;;;5039417;28;20052;-72
2023/05/11 04:21:49;;;;;;;0.30;0.30;;;;;;;;;;5040499;28;20136;-75
2023/05/11 04:24:18;;;;;;;0.77;0.30;;;;;;;;;;5039292;28;20041;-75
2023/05/11 04:26:46;;;;;;;0.10;0.10;;;;;;;;;;5035198;28;20047;-73
2023/05/11 04:29:14;;;;;;;0.10;0.10;;;;;;;;;;5040198;28;20053;-71
2023/05/11 04:31:43;;;;;;;0.10;0.10;;;;;;;;;;5033532;28;20059;-73
2023/05/11 04:34:11;;;;;;;0.20;0.20;;;;;;;;;;5038568;28;20068;-72
2023/05/11 04:36:41;;;;;;;0.40;0.20;;;;;;;;;;5044879;28;20410;-75
2023/05/11 04:39:09;;;;;;;0.10;0.10;;;;;;;;;;5040468;28;20443;-73
2023/05/11 04:41:37;;;;;;;0.15;0.15;;;;;;;;;;5039676;28;20052;-77
2023/05/11 04:44:06;;;;;;;0.45;0.22;;;;;;;;;;5038318;28;20064;-75
2023/05/11 04:46:35;;;;;;;0.10;0.10;;;;;;;;;;5038380;28;20064;-67
2023/05/11 04:49:04;;;;;;;5.00;0.30;;;;;;;;;;5038127;28;20044;-76
2023/05/11 04:51:32;;;;;;;0.20;0.20;;;;;;;;;;5040224;28;20474;-77
2023/05/11 04:54:02;;;;;;;2.85;0.20;;;;;;;;;;5039989;28;20045;-77
2023/05/11 04:56:30;;;;;;;0.10;0.10;;;;;;;;;;5037277;28;20065;-77
2023/05/11 04:58:59;;;;;;;0.20;0.20;;;;;;;;;;5040163;28;20060;-75
2023/05/11 05:01:27;;;;;;;1.15;0.22;;;;;;;;;;5036302;28;20071;-75
2023/05/11 05:03:55;;;;;;;0.30;0.10;;;;;;;;;;5039973;28;20080;-77
2023/05/11 05:06:24;;;;;;;0.32;0.20;;;;;;;;;;5042818;28;20091;-77
2023/05/11 05:08:54;;;;;;;0.57;0.20;;;;;;;;;;5041630;28;20110;-73
2023/05/11 05:11:24;;;;;;;1.20;0.08;;;;;;;;;;5040507;28;20082;-75
2023/05/11 05:13:52;;;;;;;0.22;0.20;;;;;;;;;;5042510;28;20045;-74
2023/05/11 05:16:20;;;;;;;0.10;0.10;;;;;;;;;;5042214;28;20049;-74
2023/05/11 05:18:49;;;;;;;0.10;0.10;;;;;;;;;;5043688;28;20076;-74
2023/05/11 05:21:17;;;;;;;0.20;0.20;;;;;;;;;;5044062;28;20106;-73
2023/05/11 05:23:46;;;;;;;0.30;0.20;;;;;;;;;;5041429;28;20060;-76
2023/05/11 05:26:14;;;;;;;0.10;0.10;;;;;;;;;;5045793;28;20049;-83
2023/05/11 05:28:44;;;;;;;0.28;0.22;;;;;;;;;;5048201;28;20053;-80
2023/05/11 05:31:12;;;;;;;0.10;0.10;;;;;;;;;;5045743;28;20045;-83
2023/05/11 05:33:41;;;;;;;2.63;0.22;;;;;;;;;;5047289;28;20052;-81
2023/05/11 05:36:09;;;;;;;0.10;0.10;;;;;;;;;;5047878;28;20053;-77
2023/05/11 05:38:38;;;;;;;0.30;0.30;;;;;;;;;;5046643;28;20045;-70
2023/05/11 05:41:06;;;;;;;0.30;0.30;;;;;;;;;;5049071;28;20055;-80
2023/05/11 05:43:35;;;;;;;1.02;0.17;;;;;;;;;;5047066;28;20049;-74
2023/05/11 05:46:04;;;;;;;0.45;0.32;;;;;;;;;;5049615;28;20048;-80
2023/05/11 05:48:33;;;;;;;0.17;0.17;;;;;;;;;;5049804;28;20048;-81
2023/05/11 05:51:01;;;;;;;0.40;0.40;;;;;;;;;;5047583;28;20059;-81
2023/05/11 05:53:30;;;;;;;0.17;0.17;;;;;;;;;;5048909;28;20434;-77
2023/05/11 05:55:58;;;;;;;0.25;0.17;;;;;;;;;;5046936;28;20041;-69
2023/05/11 05:58:26;;;;;;;1.98;0.20;;;;;;;;;;5048216;28;20051;-79
2023/05/11 06:00:55;;;;;;;1.45;0.40;;;;;;;;;;5049956;28;20076;-76
2023/05/11 06:03:25;;;;;;;1.40;0.90;;;;;;;;;;5048459;28;20049;-72
2023/05/11 06:05:56;;;;;;;0.20;0.20;;;;;;;;;;5049433;28;20057;-75
2023/05/11 06:08:25;;;;;;;1.27;0.70;;;;;;;;;;5050579;28;20085;-75
2023/05/11 06:10:53;;;;;;;0.55;0.55;;;;;;;;;;5046613;28;20540;-75
2023/05/11 06:13:21;;;;;;;0.05;0.05;;;;;;;;;;5053577;28;20044;-73
2023/05/11 06:15:50;;;;;;;1.95;0.52;;;;;;;;;;5046584;28;20464;-77
2023/05/11 06:18:18;;;;;;;0.22;0.22;;;;;;;;;;5049791;28;20069;-79
2023/05/11 06:20:48;;;;;;;0.20;0.20;;;;;;;;;;5051649;28;20505;-83
2023/05/11 06:23:16;;;;;;;0.25;0.25;;;;;;;;;;5050518;28;20106;-72
2023/05/11 06:25:44;;;;;;;0.43;0.43;;;;;;;;;;5050328;28;20053;-73
2023/05/11 06:28:13;;;;;;;0.10;0.10;;;;;;;;;;5050648;28;20049;-78
2023/05/11 06:30:41;;;;;;;0.13;0.13;;;;;;;;;;5048335;28;20141;-71
2023/05/11 06:33:09;;;;;;;0.45;0.30;;;;;;;;;;5050337;28;20474;-74
2023/05/11 06:35:38;;;;;;;0.20;0.20;;;;;;;;;;5048981;28;20049;-77
2023/05/11 06:38:08;;;;;;;0.10;0.10;;;;;;;;;;5046045;28;20119;-73
2023/05/11 06:40:36;;;;;;;0.10;0.10;;;;;;;;;;5048045;28;20132;-74
2023/05/11 06:43:05;;;;;;;0.65;0.43;;;;;;;;;;5047650;28;20400;-75
2023/05/11 06:45:33;;;;;;;0.22;0.22;;;;;;;;;;5044289;28;20087;-78
2023/05/11 06:48:02;;;;;;;0.10;0.10;;;;;;;;;;5047320;28;20065;-68
2023/05/11 06:50:30;;;;;;;0.10;0.10;;;;;;;;;;5044987;28;20052;-78
2023/05/11 06:52:59;;;;;;;0.10;0.10;;;;;;;;;;5044542;28;20056;-78
2023/05/11 06:55:28;;;;;;;0.20;0.15;;;;;;;;;;5046000;28;20425;-74
2023/05/11 06:57:57;;;;;;;0.10;0.10;;;;;;;;;;5045385;28;20052;-73
2023/05/11 07:00:25;;;;;;;0.15;0.10;;;;;;;;;;5046388;28;20379;-70
2023/05/11 07:02:53;;;;;;;0.93;0.15;;;;;;;;;;5045447;28;20045;-76
2023/05/11 07:05:22;;;;;;;0.10;0.10;;;;;;;;;;5046958;28;20132;-74
2023/05/11 07:07:51;;;;;;;0.10;0.10;;;;;;;;;;5046355;28;20512;-77
2023/05/11 07:10:19;;;;;;;0.80;0.10;;;;;;;;;;5044809;28;20214;-77
2023/05/11 07:12:49;;;;;;;0.10;0.10;;;;;;;;;;5046918;28;20055;-80
2023/05/11 07:15:18;;;;;;;0.10;0.10;;;;;;;;;;5042862;28;20056;-77
2023/05/11 07:17:47;;;;;;;0.00;0.00;;;;;;;;;;5043105;28;20048;-77
2023/05/11 07:20:16;;;;;;;0.10;0.10;;;;;;;;;;5045082;28;20045;-79
2023/05/11 07:22:44;;;;;;;0.15;0.15;;;;;;;;;;5045578;28;20041;-77
2023/05/11 07:25:13;;;;;;;1.17;0.20;;;;;;;;;;5043459;28;20490;-78
2023/05/11 07:27:41;;;;;;;0.10;0.10;;;;;;;;;;5045238;28;20037;-79
2023/05/11 07:30:12;;;;;;;0.20;0.20;;;;;;;;;;5038516;28;20046;-74
2023/05/11 07:32:40;;;;;;;0.57;0.22;;;;;;;;;;5044605;28;20124;-75
2023/05/11 07:35:09;;;;;;;0.60;0.28;;;;;;;;;;5043542;28;20195;-78
2023/05/11 07:37:38;;;;;;;1.13;0.35;;;;;;;;;;5045797;28;20096;-79
2023/05/11 07:40:07;;;;;;;0.20;0.20;;;;;;;;;;5044765;28;20045;-78
2023/05/11 07:42:35;;;;;;;0.10;0.10;;;;;;;;;;5041667;28;20138;-71
2023/05/11 07:45:03;;;;;;;0.10;0.10;;;;;;;;;;5043032;28;20048;-77
2023/05/11 07:47:33;;;;;;;0.10;0.10;;;;;;;;;;5053715;28;20045;-76
2023/05/11 07:50:04;;;;;;;0.10;0.10;;;;;;;;;;5051650;28;20064;-75
2023/05/11 07:52:32;;;;;;;0.73;0.20;;;;;;;;;;5045339;28;20045;-77
2023/05/11 07:55:01;;;;;;;0.10;0.10;;;;;;;;;;5046630;28;20653;-78
2023/05/11 07:57:29;;;;;;;0.08;0.08;;;;;;;;;;5041774;28;20489;-75
2023/05/11 07:59:58;;;;;;;0.10;0.10;;;;;;;;;;5042796;28;20077;-78
2023/05/11 08:02:26;;;;;;;0.08;0.08;;;;;;;;;;5044863;28;20045;-76
2023/05/11 08:04:56;;;;;;;0.28;0.17;;;;;;;;;;5043134;28;20041;-78
2023/05/11 08:07:25;;;;;;;0.15;0.15;;;;;;;;;;5045764;28;20497;-76
2023/05/11 08:09:53;;;;;;;0.15;0.13;;;;;;;;;;5040710;28;20049;-73
2023/05/11 08:12:21;;;;;;;0.08;0.08;;;;;;;;;;5043520;28;20195;-74
2023/05/11 08:14:50;;;;;;;0.35;0.25;;;;;;;;;;5044311;28;20496;-78
2023/05/11 08:17:18;;;;;;;0.80;0.55;;;;;;;;;;5045117;28;20052;-77
2023/05/11 08:19:47;;;;;;;0.10;0.10;;;;;;;;;;5044018;28;20166;-75
2023/05/11 08:22:17;;;;;;;0.47;0.15;;;;;;;;;;5046836;28;20092;-71
2023/05/11 08:24:46;;;;;;;0.10;0.10;;;;;;;;;;5043893;28;20142;-75
2023/05/11 08:27:14;;;;;;;0.00;0.00;;;;;;;;;;5045435;28;20145;-79
2023/05/11 08:29:42;;;;;;;0.10;0.10;;;;;;;;;;5045649;28;20083;-73
2023/05/11 08:32:11;;;;;;;0.10;0.10;;;;;;;;;;5038720;28;20048;-78
2023/05/11 08:34:40;;;;;;;0.57;0.22;;;;;;;;;;5042504;28;20040;-69
2023/05/11 08:37:08;;;;;;;0.08;0.08;;;;;;;;;;5045682;28;20573;-80
2023/05/11 08:39:38;;;;;;;0.10;0.10;;;;;;;;;;5043768;28;20148;-73
2023/05/11 08:42:16;;;;;;;0.10;0.10;;;;;;;;;;5046257;28;20167;-76
2023/05/11 08:44:45;;;;;;;0.20;0.20;;;;;;;;;;5039149;28;20052;-76
2023/05/11 08:47:13;;;;;;;0.10;0.10;;;;;;;;;;5041365;28;20131;-77
2023/05/11 08:49:51;;;;;;;0.45;0.20;;;;;;;;;;5041211;28;20462;-76
2023/05/11 08:52:19;;;;;;;1.10;0.20;;;;;;;;;;5043578;28;20076;-73
2023/05/11 08:54:49;;;;;;;0.10;0.10;;;;;;;;;;5043041;28;20048;-66
2023/05/11 08:57:18;;;;;;;0.93;0.10;;;;;;;;;;5043432;28;20131;-72
2023/05/11 08:59:49;;;;;;;0.10;0.10;;;;;;;;;;5038668;28;20091;-75
2023/05/11 09:02:18;;;;;;;0.10;0.10;;;;;;;;;;5040431;28;20148;-74
2023/05/11 09:04:47;;;;;;;0.10;0.10;;;;;;;;;;5038816;28;20056;-68
2023/05/11 09:07:17;;;;;;;0.20;0.20;;;;;;;;;;5038346;28;20559;-71
2023/05/11 09:09:46;;;;;;;0.00;0.00;;;;;;;;;;5042385;28;20048;-76
2023/05/11 09:12:16;;;;;;;0.10;0.10;;;;;;;;;;5043176;28;20052;-76
2023/05/11 09:14:46;;;;;;;0.10;0.10;;;;;;;;;;5041290;28;20391;-74
2023/05/11 09:17:14;;;;;;;0.10;0.10;;;;;;;;;;5039752;28;20069;-76
2023/05/11 09:19:58;;;;;;;0.45;0.20;;;;;;;;;;5043483;28;20721;-77
2023/05/11 09:22:26;;;;;;;0.13;0.13;;;;;;;;;;5042154;28;20527;-77
2023/05/11 09:24:58;;;;;;;0.10;0.10;;;;;;;;;;5043065;28;20076;-77
2023/05/11 09:27:28;;;;;;;0.15;0.15;;;;;;;;;;5043179;28;20409;-74
2023/05/11 09:29:56;;;;;;;0.10;0.10;;;;;;;;;;5040409;28;20136;-75
2023/05/11 09:32:25;;;;;;;0.20;0.20;;;;;;;;;;5045335;28;20936;-76
2023/05/11 09:34:55;;;;;;;0.10;0.10;;;;;;;;;;5039236;28;20053;-77
2023/05/11 09:37:24;;;;;;;0.10;0.10;;;;;;;;;;5041397;28;20050;-79
2023/05/11 09:39:55;;;;;;;0.10;0.10;;;;;;;;;;5042999;28;20533;-76
2023/05/11 09:42:28;;;;;;;5.07;0.20;;;;;;;;;;5041426;28;20052;-67
2023/05/11 09:44:57;;;;;;;1.55;0.13;;;;;;;;;;5040643;28;20612;-75
2023/05/11 09:47:26;;;;;;;0.10;0.10;;;;;;;;;;5042069;28;20488;-75
2023/05/11 09:49:56;;;;;;;0.10;0.10;;;;;;;;;;5040582;28;20069;-72
2023/05/11 09:52:24;;;;;;;0.10;0.10;;;;;;;;;;5043701;28;20128;-74
2023/05/11 09:54:53;;;;;;;0.30;0.20;;;;;;;;;;5041296;28;20049;-73
2023/05/11 09:57:25;;;;;;;0.45;0.10;;;;;;;;;;5041827;28;20049;-76
2023/05/11 09:59:55;;;;;;;0.10;0.10;;;;;;;;;;5040379;28;20176;-78
2023/05/11 10:02:24;;;;;;;0.20;0.20;;;;;;;;;;5045972;28;20053;-77
2023/05/11 10:04:54;;;;;;;0.13;0.13;;;;;;;;;;5036526;28;20045;-77
2023/05/11 10:07:26;;;;;;;0.10;0.10;;;;;;;;;;5038348;28;20430;-71
2023/05/11 10:09:55;;;;;;;0.00;0.00;;;;;;;;;;5038423;28;20053;-77
2023/05/11 10:12:24;;;;;;;0.40;0.40;;;;;;;;;;5043308;28;20052;-77
2023/05/11 10:14:53;;;;;;;0.00;0.00;;;;;;;;;;5044143;28;20456;-76
2023/05/11 10:17:23;;;;;;;0.38;0.32;;;;;;;;;;5047273;28;20037;-68
2023/05/11 10:19:52;;;;;;;0.10;0.10;;;;;;;;;;5042417;28;20650;-76
2023/05/11 10:22:21;;;;;;;0.25;0.17;;;;;;;;;;5044252;28;20613;-78
2023/05/11 10:24:50;;;;;;;0.10;0.10;;;;;;;;;;5046336;28;20152;-68
2023/05/11 10:27:19;;;;;;;0.00;0.00;;;;;;;;;;5039791;28;20131;-79
2023/05/11 10:29:48;;;;;;;0.10;0.10;;;;;;;;;;5043395;28;20055;-77
2023/05/11 10:32:17;;;;;;;0.10;0.10;;;;;;;;;;5042592;28;20510;-75
2023/05/11 10:34:49;;;;;;;0.03;0.03;;;;;;;;;;5043374;28;20049;-77
2023/05/11 10:37:19;;;;;;;0.20;0.20;;;;;;;;;;5043176;28;20122;-77
2023/05/11 10:39:49;;;;;;;0.13;0.10;;;;;;;;;;5045020;28;20040;-78
2023/05/11 10:42:35;;;;;;;0.10;0.10;;;;;;;;;;5045499;28;20064;-76
2023/05/11 10:45:20;;;;;;;0.20;0.20;;;;;;;;;;5044102;28;20132;-74
2023/05/11 10:47:49;;;;;;;;;;;;;;;;;;5042649;28;20045;-76
2023/05/11 10:50:25;;;;;;;0.20;0.13;;;;;;;;;;5043219;28;19983;-74
2023/05/11 10:53:01;;;;;;;0.20;0.20;;;;;;;;;;5043620;28;20072;-79
2023/05/11 10:55:36;;;;;;;0.20;0.20;;;;;;;;;;5040860;28;20048;-78
2023/05/11 10:58:04;;;;;;;;;;;;;;;;;;5046448;28;20041;-79
2023/05/11 11:00:59;;;;;;;2.53;0.30;;;;;;;;;;5044957;28;20028;-74
2023/05/11 11:03:28;;;;;;;0.00;0.00;;;;;;;;;;5046833;28;20176;-73
2023/05/11 11:05:57;;;;;;;0.20;0.20;;;;;;;;;;5040798;28;20091;-78
2023/05/11 11:08:28;;;;;;;0.10;0.10;;;;;;;;;;5045121;28;20568;-80
2023/05/11 11:10:57;;;;;;;0.17;0.17;;;;;;;;;;5045459;28;20045;-75
2023/05/11 11:13:25;;;;;;;0.10;0.10;;;;;;;;;;5038492;28;20068;-78
2023/05/11 11:16:09;;;;;;;0.08;0.08;;;;;;;;;;5042730;28;20045;-78
2023/05/11 11:18:39;;;;;;;0.10;0.10;;;;;;;;;;5042630;28;20409;-72
2023/05/11 11:21:14;;;;;;;0.10;0.10;;;;;;;;;;5045174;28;20049;-76
2023/05/11 11:23:47;;;;;;;0.08;0.08;;;;;;;;;;5042535;28;20061;-74
2023/05/11 11:26:18;;;;;;;0.10;0.10;;;;;;;;;;5043401;28;20107;-74
2023/05/11 11:29:01;;;;;;;0.20;0.10;;;;;;;;;;5043425;28;20132;-79
2023/05/11 11:31:31;;;;;;;0.20;0.20;;;;;;;;;;5043068;28;20984;-76
2023/05/11 11:34:19;;;;;;;0.30;0.30;;;;;;;;;;5041443;28;20048;-76
2023/05/11 11:37:07;;;;;;;0.32;0.25;;;;;;;;;;5044088;28;20052;-74
2023/05/11 11:40:03;;;;;;;0.15;0.15;;;;;;;;;;5044635;28;20045;-74
2023/05/11 11:42:43;;;;;;;0.30;0.20;;;;;;;;;;5039004;28;20044;-74
2023/05/11 11:45:31;;;;;;;0.15;0.15;;;;;;;;;;5041419;28;20056;-75
2023/05/11 11:48:06;;;;;;;3.67;0.20;;;;;;;;;;5043996;28;20053;-78
2023/05/11 11:50:35;;;;;;;0.90;0.68;;;;;;;;;;5044203;28;20048;-79
2023/05/11 11:53:04;;;;;;;0.20;0.20;;;;;;;;;;5041039;28;20144;-77
2023/05/11 11:55:46;;;;;;;0.10;0.10;;;;;;;;;;5041368;28;20510;-77
2023/05/11 11:58:29;;;;;;;0.60;0.38;;;;;;;;;;5044060;28;20056;-82
2023/05/11 12:00:58;;;;;;;0.17;0.10;;;;;;;;;;5045042;28;20040;-75
2023/05/11 12:03:27;;;;;;;0.10;0.10;;;;;;;;;;5042097;28;20127;-75
2023/05/11 12:05:59;;;;;;;0.10;0.10;;;;;;;;;;5041381;28;20059;-78
2023/05/11 12:08:31;;;;;;;0.20;0.20;;;;;;;;;;5044620;28;20072;-77
2023/05/11 12:10:59;;;;;;;0.20;0.20;;;;;;;;;;5044736;28;20125;-73
2023/05/11 12:13:28;;;;;;;0.50;0.30;;;;;;;;;;5039761;28;20510;-75
2023/05/11 12:16:09;;;;;;;0.43;0.30;;;;;;;;;;5043656;28;20049;-75
2023/05/11 12:18:37;;;;;;;0.77;0.30;;;;;;;;;;5041163;28;20056;-75
2023/05/11 12:21:06;;;;;;;0.03;0.03;;;;;;;;;;5042960;28;20052;-75
2023/05/11 12:23:35;;;;;;;0.17;0.17;;;;;;;;;;5046253;28;20077;-66
2023/05/11 12:26:04;;;;;;;0.60;0.40;;;;;;;;;;5042906;28;20152;-77
2023/05/11 12:28:32;;;;;;;0.10;0.10;;;;;;;;;;5037474;28;20045;-77
2023/05/11 12:31:01;;;;;;;0.73;0.30;;;;;;;;;;5044992;28;20661;-77
2023/05/11 12:33:29;;;;;;;0.30;0.30;;;;;;;;;;5039421;28;20048;-76
2023/05/11 12:35:58;;;;;;;0.55;0.55;;;;;;;;;;5039510;28;20040;-77
2023/05/11 12:38:26;;;;;;;0.10;0.10;;;;;;;;;;5041107;28;20040;-75
2023/05/11 12:40:56;;;;;;;0.10;0.10;;;;;;;;;;5043897;28;20080;-80
2023/05/11 12:43:24;;;;;;;2.38;0.30;;;;;;;;;;5040440;28;20041;-80
2023/05/11 12:45:53;;;;;;;0.35;0.30;;;;;;;;;;5038100;28;20566;-78
2023/05/11 12:48:21;;;;;;;1.85;0.17;;;;;;;;;;5044193;28;20053;-80
2023/05/11 12:50:50;;;;;;;0.40;0.40;;;;;;;;;;5038574;28;20049;-74
2023/05/11 12:53:18;;;;;;;0.45;0.45;;;;;;;;;;5041567;28;20152;-81
2023/05/11 12:55:57;;;;;;;0.10;0.10;;;;;;;;;;5043129;28;20131;-81
2023/05/11 12:58:27;;;;;;;0.40;0.28;;;;;;;;;;5038039;28;20072;-81
2023/05/11 13:00:56;;;;;;;2.13;0.43;;;;;;;;;;5043687;28;20044;-77
2023/05/11 13:03:25;;;;;;;4.03;0.30;;;;;;;;;;5041849;28;20526;-77
2023/05/11 13:06:04;;;;;;;0.40;0.30;;;;;;;;;;5044465;28;20053;-79
2023/05/11 13:08:32;;;;;;;0.17;0.17;;;;;;;;;;5040805;28;20147;-79
2023/05/11 13:11:15;;;;;;;0.32;0.25;;;;;;;;;;5038536;28;20466;-72
2023/05/11 13:13:46;;;;;;;0.20;0.20;;;;;;;;;;5037028;28;20056;-80
2023/05/11 13:16:23;;;;;;;1.20;0.55;;;;;;;;;;5039594;28;20482;-74
2023/05/11 13:18:58;;;;;;;1.17;0.38;;;;;;;;;;5040263;28;20893;-80
2023/05/11 13:21:28;;;;;;;0.20;0.20;;;;;;;;;;5042967;28;20060;-80
2023/05/11 13:23:57;;;;;;;0.10;0.10;;;;;;;;;;5041104;28;20056;-69
2023/05/11 13:26:25;;;;;;;0.10;0.10;;;;;;;;;;5042108;28;20136;-73
2023/05/11 13:28:55;;;;;;;0.20;0.20;;;;;;;;;;5036337;28;20049;-79
2023/05/11 13:31:42;;;;;;;0.30;0.20;;;;;;;;;;5042565;28;20448;-74
2023/05/11 13:34:11;;;;;;;0.85;0.47;;;;;;;;;;5040643;28;20053;-76
2023/05/11 13:36:40;;;;;;;0.10;0.10;;;;;;;;;;5041446;28;20395;-77
2023/05/11 13:39:08;;;;;;;0.30;0.10;;;;;;;;;;5037137;28;20243;-79
2023/05/11 13:41:37;;;;;;;0.80;0.35;;;;;;;;;;5041587;28;20053;-79
2023/05/11 13:44:07;;;;;;;0.55;0.20;;;;;;;;;;5039352;28;20414;-79
2023/05/11 13:46:35;;;;;;;2.85;0.13;;;;;;;;;;5044174;28;20115;-70
2023/05/11 13:49:05;;;;;;;0.10;0.10;;;;;;;;;;5046519;28;20045;-72
2023/05/11 13:51:33;;;;;;;0.82;0.30;;;;;;;;;;5042811;28;20045;-81
2023/05/11 13:54:02;;;;;;;0.00;0.00;;;;;;;;;;5045346;28;20498;-78
2023/05/11 13:56:31;;;;;;;0.10;0.10;;;;;;;;;;5042934;28;20045;-79
2023/05/11 13:59:00;;;;;;;1.08;0.38;;;;;;;;;;5045148;28;20124;-77
2023/05/11 14:01:29;;;;;;;0.20;0.20;;;;;;;;;;5043417;28;20144;-79
2023/05/11 14:03:58;;;;;;;0.13;0.13;;;;;;;;;;5044216;28;20060;-78
2023/05/11 14:06:26;;;;;;;0.10;0.10;;;;;;;;;;5042330;28;20127;-78
2023/05/11 14:08:55;;;;;;;0.10;0.00;;;;;;;;;;5040403;28;20377;-78
2023/05/11 14:11:23;;;;;;;0.10;0.10;;;;;;;;;;5040538;28;20926;-75
2023/05/11 14:13:52;;;;;;;0.17;0.17;;;;;;;;;;5041526;28;20426;-80
2023/05/11 14:16:20;;;;;;;0.20;0.20;;;;;;;;;;5043050;28;20099;-79
2023/05/11 14:18:50;;;;;;;0.30;0.30;;;;;;;;;;5044988;28;20055;-81
2023/05/11 14:21:19;;;;;;;1.20;0.35;;;;;;;;;;5040633;28;20051;-80
2023/05/11 14:23:47;;;;;;;0.30;0.28;;;;;;;;;;5047745;28;20080;-74
2023/05/11 14:26:34;;;;;;;0.20;0.20;;;;;;;;;;5043499;28;20057;-80
2023/05/11 14:29:02;;;;;;;0.30;0.25;;;;;;;;;;5042119;28;20087;-70
2023/05/11 14:31:34;;;;;;;0.30;0.10;;;;;;;;;;5044542;28;20049;-74
2023/05/11 14:34:04;;;;;;;0.10;0.10;;;;;;;;;;5044415;28;20076;-74
2023/05/11 14:36:33;;;;;;;0.10;0.10;;;;;;;;;;5041193;28;20657;-81
2023/05/11 14:39:01;;;;;;;0.20;0.20;;;;;;;;;;5044179;28;20071;-68
2023/05/11 14:41:30;;;;;;;0.20;0.20;;;;;;;;;;5046529;28;20127;-82
2023/05/11 14:43:59;;;;;;;1.20;0.40;;;;;;;;;;5047753;28;20056;-68
2023/05/11 14:46:28;;;;;;;0.25;0.25;;;;;;;;;;5041329;28;20067;-81
2023/05/11 14:48:56;;;;;;;0.10;0.10;;;;;;;;;;5043979;28;20388;-81
2023/05/11 14:51:26;;;;;;;0.95;0.30;;;;;;;;;;5042223;28;20136;-78
2023/05/11 14:53:54;;;;;;;0.47;0.30;;;;;;;;;;5042524;28;20128;-71
2023/05/11 14:56:23;;;;;;;0.20;0.20;;;;;;;;;;5044969;28;20494;-81
2023/05/11 14:58:51;;;;;;;0.10;0.10;;;;;;;;;;5045201;28;20469;-82
2023/05/11 15:01:20;;;;;;;0.10;0.10;;;;;;;;;;5041415;28;20051;-81